Time;durP1;ratioP1;P1;durP2;ratioP2;P2;SDS_P1;SDS_P2;PMS_P1;PMS_P2;Temp;Humidity;BMP_temperature;BMP_pressure;BME280_temperature;BME280_humidity;BME280_pressure;Samples;Min_cycle;Max_cycle;Signal;HPM_P1;HPM_P2
2022/02/08 00:01:54;;;;;;;7.40;4.78;;;;;;;7.93;44.96;94471.69;5009978;28;20697;-69
2022/02/08 00:04:21;;;;;;;8.30;5.22;;;;;;;8.61;43.61;94479.47;5010168;28;20265;-68
2022/02/08 00:06:48;;;;;;;7.57;4.65;;;;;;;7.56;44.88;94484.66;5011383;28;20194;-68
2022/02/08 00:09:17;;;;;;;6.80;4.88;;;;;;;8.32;44.32;94470.41;5010324;28;20194;-67
2022/02/08 00:11:43;;;;;;;6.82;4.97;;;;;;;8.13;43.78;94443.13;5009989;28;20198;-68
2022/02/08 00:14:11;;;;;;;7.90;5.30;;;;;;;8.43;43.43;94469.44;5009331;28;20810;-67
2022/02/08 00:16:38;;;;;;;5.88;4.75;;;;;;;8.76;42.64;94458.66;5010154;28;20194;-69
2022/02/08 00:19:05;;;;;;;6.07;5.03;;;;;;;8.00;44.33;94451.38;5009109;28;20216;-69
2022/02/08 00:21:33;;;;;;;7.15;4.85;;;;;;;8.70;43.23;94464.94;5009964;28;20197;-70
2022/02/08 00:24:00;;;;;;;8.63;4.88;;;;;;;8.41;42.77;94468.16;5009773;28;20205;-69
2022/02/08 00:26:26;;;;;;;8.48;4.72;;;;;;;7.95;43.88;94473.00;5010203;28;20193;-69
2022/02/08 00:28:55;;;;;;;8.60;5.07;;;;;;;8.59;43.40;94462.50;5009429;28;20586;-70
2022/02/08 00:31:22;;;;;;;5.93;4.78;;;;;;;8.88;42.77;94461.88;5009820;28;20292;-70
2022/02/08 00:33:49;;;;;;;7.22;4.57;;;;;;;9.01;41.91;94469.22;5009369;28;20230;-69
2022/02/08 00:36:18;;;;;;;5.25;3.20;;;;;;;7.98;43.73;94466.50;5010343;28;20233;-74
2022/02/08 00:38:46;;;;;;;7.63;4.32;;;;;;;7.90;44.29;94480.78;5009009;28;20647;-70
2022/02/08 00:41:13;;;;;;;39.25;16.27;;;;;;;7.75;43.32;94459.81;5009627;28;20197;-69
2022/02/08 00:46:16;;;;;;;8.48;3.97;;;;;;;7.81;43.69;94491.94;5009517;28;20252;-68
2022/02/08 00:48:53;;;;;;;5.28;4.65;;;;;;;8.68;42.48;94480.06;5008871;28;20240;-68
2022/02/08 00:51:24;;;;;;;8.10;5.20;;;;;;;8.42;42.79;94487.97;5009068;28;20201;-66
2022/02/08 00:53:52;;;;;;;6.53;4.80;;;;;;;8.55;42.81;94485.72;5007063;28;20251;-66
2022/02/08 00:56:19;;;;;;;7.10;4.65;;;;;;;8.46;42.37;94483.84;5007847;28;20723;-69
2022/02/08 00:58:46;;;;;;;6.47;4.00;;;;;;;8.07;43.04;94496.31;5008482;28;20205;-69
2022/02/08 01:01:13;;;;;;;8.30;4.18;;;;;;;8.40;42.72;94493.44;5009030;28;20201;-69
2022/02/08 01:03:42;;;;;;;6.90;4.40;;;;;;;7.73;42.61;94480.13;5008707;28;20198;-69
2022/02/08 01:06:10;;;;;;;10.43;4.63;;;;;;;7.45;44.33;94487.38;5009387;28;20202;-67
2022/02/08 01:08:38;;;;;;;8.18;4.50;;;;;;;8.01;42.71;94484.28;5007070;28;20198;-70
2022/02/08 01:11:09;;;;;;;6.70;4.32;;;;;;;8.12;42.76;94489.31;5008895;28;20201;-72
2022/02/08 01:13:39;;;;;;;6.20;3.95;;;;;;;7.27;43.45;94496.34;5008599;28;20202;-71
2022/02/08 01:16:07;;;;;;;5.80;4.00;;;;;;;7.73;43.31;94489.75;5007995;28;20201;-70
2022/02/08 01:18:38;;;;;;;8.20;4.97;;;;;;;7.99;42.87;94494.16;5008611;28;20601;-69
2022/02/08 01:21:05;;;;;;;5.53;4.20;;;;;;;8.43;42.15;94485.09;5009163;28;20201;-68
2022/02/08 01:23:33;;;;;;;7.22;4.35;;;;;;;8.07;42.09;94499.72;5007243;28;20190;-71
2022/02/08 01:26:07;;;;;;;8.10;4.53;;;;;;;8.29;41.60;94497.03;5007627;28;20555;-69
2022/02/08 01:31:04;;;;;;;7.95;4.50;;;;;;;8.19;41.79;94507.38;5009274;28;20632;-69
2022/02/08 01:39:12;;;;;;;5.47;4.05;;;;;;;8.91;40.71;94503.16;5008607;28;20190;-69
2022/02/08 01:47:21;;;;;;;5.60;3.70;;;;;;;7.67;42.03;94519.41;5007541;28;20206;-69
2022/02/08 01:50:21;;;;;;;4.60;3.30;;;;;;;8.38;40.41;94508.59;5007210;28;20708;-70
2022/02/08 01:53:08;;;;;;;5.90;4.20;;;;;;;7.87;41.06;94507.38;5007629;28;20283;-69
2022/02/08 01:55:38;;;;;;;5.75;4.30;;;;;;;7.95;41.92;94527.00;5009072;28;20620;-69
2022/02/08 01:58:22;;;;;;;6.47;4.25;;;;;;;8.01;41.21;94512.97;5007063;28;20304;-69
2022/02/08 02:00:54;;;;;;;5.65;4.32;;;;;;;7.87;41.33;94527.44;5007682;28;20205;-70
2022/02/08 02:03:22;;;;;;;5.22;4.60;;;;;;;8.81;39.74;94528.44;5007342;28;20298;-71
2022/02/08 02:05:52;;;;;;;7.65;4.97;;;;;;;8.71;40.40;94523.16;5007677;28;20208;-69
2022/02/08 02:08:20;;;;;;;8.60;3.17;;;;;;;7.52;41.74;94534.94;5007057;28;21021;-69
2022/02/08 02:10:51;;;;;;;5.20;4.20;;;;;;;7.87;41.52;94527.44;5010847;28;20301;-69
2022/02/08 02:13:43;;;;;;;5.88;4.72;;;;;;;8.41;40.10;94528.94;5010531;28;20229;-69
2022/02/08 02:16:28;;;;;;;5.90;4.90;;;;;;;8.57;40.97;94538.50;5011036;28;20232;-70
2022/02/08 02:18:55;;;;;;;9.82;5.68;;;;;;;8.48;40.25;94540.00;5012925;28;20194;-68
2022/02/08 02:21:28;;;;;;;6.75;5.72;;;;;;;8.02;41.59;94540.63;5011070;28;20202;-69
2022/02/08 02:23:55;;;;;;;7.80;6.22;;;;;;;8.40;40.74;94543.06;5010149;28;20701;-70
2022/02/08 02:26:25;;;;;;;7.18;4.60;;;;;;;7.83;41.94;94548.00;5010665;28;20290;-68
2022/02/08 02:28:53;;;;;;;6.25;5.55;;;;;;;8.30;40.32;94553.44;5009932;28;20209;-68
2022/02/08 02:31:21;;;;;;;6.47;4.85;;;;;;;8.17;41.30;94559.03;5010390;28;20288;-68
2022/02/08 02:33:50;;;;;;;5.68;5.07;;;;;;;8.23;41.35;94568.47;5010169;28;20318;-67
2022/02/08 02:36:18;;;;;;;5.93;5.28;;;;;;;7.82;41.32;94567.31;5010175;28;20285;-68
2022/02/08 02:38:45;;;;;;;5.63;4.35;;;;;;;8.09;41.40;94572.53;5009785;28;20194;-67
2022/02/08 02:41:15;;;;;;;6.53;5.28;;;;;;;8.74;40.84;94578.28;5010252;28;20244;-67
2022/02/08 02:43:45;;;;;;;7.90;5.13;;;;;;;8.00;41.79;94579.22;5009894;28;20226;-68
2022/02/08 02:46:12;;;;;;;6.45;4.75;;;;;;;8.11;41.55;94575.66;5011767;28;21010;-69
2022/02/08 02:48:39;;;;;;;5.45;4.93;;;;;;;7.78;42.24;94588.91;5010002;28;20742;-69
2022/02/08 02:51:07;;;;;;;7.65;5.05;;;;;;;7.48;42.31;94591.97;5010509;28;20271;-68
2022/02/08 02:54:17;;;;;;;8.00;5.40;;;;;;;8.24;41.51;94601.41;5009539;28;20229;-68
2022/02/08 02:57:34;;;;;;;7.45;4.78;;;;;;;7.58;42.28;94606.94;5011929;28;20276;-67
2022/02/08 03:00:08;;;;;;;5.75;4.45;;;;;;;7.41;42.56;94614.03;5009664;28;20218;-68
2022/02/08 03:18:51;;;;;;;7.25;5.32;;;;;;;8.26;40.34;94594.13;5009784;28;20290;-69
2022/02/08 03:21:18;;;;;;;6.40;5.22;;;;;;;7.98;40.75;94604.75;5009526;28;20212;-68
2022/02/08 03:23:45;;;;;;;8.52;5.38;;;;;;;7.98;40.93;94612.59;5009148;28;20638;-69
2022/02/08 03:26:12;;;;;;;7.90;5.60;;;;;;;7.97;41.13;94622.22;5009217;28;20202;-67
2022/02/08 03:28:46;;;;;;;6.75;5.13;;;;;;;7.23;41.79;94622.91;5009016;28;20565;-68
2022/02/08 03:31:21;;;;;;;7.22;5.30;;;;;;;7.48;42.09;94638.88;5009397;28;20209;-68
2022/02/08 03:33:48;;;;;;;6.63;5.30;;;;;;;7.76;41.01;94640.50;5009009;28;20268;-69
2022/02/08 03:36:16;;;;;;;8.10;5.18;;;;;;;7.59;41.87;94634.59;5008899;28;20635;-70
2022/02/08 03:38:59;;;;;;;7.60;5.10;;;;;;;7.85;40.54;94633.84;5008570;28;20685;-69
2022/02/08 03:41:39;;;;;;;6.72;5.05;;;;;;;7.36;42.23;94645.25;5009262;28;20636;-67
2022/02/08 03:44:16;;;;;;;7.70;5.03;;;;;;;7.58;41.72;94648.66;5008384;28;20296;-68
2022/02/08 03:47:07;;;;;;;6.00;4.82;;;;;;;7.30;41.85;94625.38;5009347;28;20300;-70
2022/02/08 03:49:40;;;;;;;8.45;4.38;;;;;;;7.35;41.17;94618.41;5009055;28;20689;-68
2022/02/08 03:52:07;;;;;;;8.15;5.13;;;;;;;7.61;40.81;94637.75;5008906;28;20268;-71
2022/02/08 03:54:39;;;;;;;6.50;4.15;;;;;;;6.98;41.78;94636.41;5008597;28;20268;-69
2022/02/08 03:57:09;;;;;;;36.20;18.02;;;;;;;7.57;41.25;94645.25;5008745;28;21013;-68
2022/02/08 03:59:45;;;;;;;6.15;4.57;;;;;;;6.92;41.97;94642.56;5008659;28;20258;-69
2022/02/08 04:07:50;;;;;;;5.43;4.82;;;;;;;7.66;40.93;94662.06;5009969;28;20205;-69
2022/02/08 04:10:07;;;;;;;7.88;4.95;;;;;;;7.82;41.10;94642.16;5011664;28;20646;-67
2022/02/08 04:34:21;;;;;;;4.90;4.30;;;;;;;7.61;40.74;94698.50;5009795;28;20291;-69
2022/02/08 04:45:21;;;;;;;8.38;4.35;;;;;;;7.65;40.10;94701.41;5008843;28;20268;-70
2022/02/08 04:48:27;;;;;;;8.48;5.53;;;;;;;7.98;40.46;94706.50;5009343;28;20210;-70
2022/02/08 04:50:30;;;;;;;7.68;6.07;;;;;;;8.02;39.55;94707.59;5010823;28;20681;-71
2022/02/08 04:53:04;;;;;;;6.93;4.47;;;;;;;7.78;39.49;94711.47;5009119;28;20288;-69
2022/02/08 04:59:18;;;;;;;6.35;4.30;;;;;;;7.73;39.49;94729.69;5036672;28;20287;-68
2022/02/08 05:01:28;;;;;;;6.75;4.45;;;;;;;6.79;41.33;94728.81;5028638;28;20203;-70
2022/02/08 05:37:24;;;;;;;86.40;53.20;;;;;;;7.76;41.95;94776.13;5008301;28;20944;-68
2022/02/08 05:45:24;;;;;;;5.88;4.30;;;;;;;7.39;39.15;94788.13;5010500;28;20229;-68
2022/02/08 05:47:54;;;;;;;5.85;4.20;;;;;;;7.57;39.05;94803.53;5011314;28;20208;-68
2022/02/08 05:53:04;;;;;;;5.53;4.55;;;;;;;7.62;38.70;94830.47;5013015;28;20245;-67
2022/02/08 05:55:34;;;;;;;7.40;4.13;;;;;;;6.83;39.48;94823.69;5011991;28;20697;-66
2022/02/08 05:58:02;;;;;;;8.13;4.53;;;;;;;7.08;39.73;94837.13;5013163;28;20210;-62
2022/02/08 06:00:30;;;;;;;8.52;4.45;;;;;;;7.11;38.79;94852.31;5012404;28;20329;-62
2022/02/08 06:03:18;;;;;;;33.22;23.15;;;;;;;6.94;40.11;94867.13;5011666;28;20241;-64
2022/02/08 06:05:55;;;;;;;47.50;23.48;;;;;;;7.17;39.82;94866.22;5010897;28;20213;-64
2022/02/08 06:08:22;;;;;;;9.88;4.60;;;;;;;6.91;39.61;94877.22;5012055;28;20194;-64
2022/02/08 06:10:54;;;;;;;6.47;4.70;;;;;;;7.16;39.65;94890.69;5012447;28;20212;-64
2022/02/08 06:13:22;;;;;;;8.43;4.85;;;;;;;7.79;38.12;94891.22;5011550;28;20221;-64
2022/02/08 06:15:59;;;;;;;7.53;4.47;;;;;;;7.16;39.17;94896.69;5009373;28;20232;-63
2022/02/08 06:18:30;;;;;;;6.25;4.43;;;;;;;7.80;37.99;94894.63;5009262;28;20201;-64
2022/02/08 06:20:58;;;;;;;10.02;6.30;;;;;;;7.70;38.17;94881.44;5009821;28;20209;-63
2022/02/08 06:23:28;;;;;;;68.60;26.33;;;;;;;7.43;38.60;94906.50;5009860;28;20182;-63
2022/02/08 06:25:56;;;;;;;8.48;4.70;;;;;;;6.92;39.83;94904.81;5012023;28;20198;-64
2022/02/08 06:31:20;;;;;;;8.45;5.18;;;;;;;6.80;40.01;94912.69;5011489;28;20239;-63
2022/02/08 06:33:47;;;;;;;10.50;5.40;;;;;;;6.96;39.78;94917.16;5010975;28;20229;-65
2022/02/08 06:36:16;;;;;;;7.40;4.85;;;;;;;6.61;39.72;94926.88;5011407;28;20194;-64
2022/02/08 06:38:49;;;;;;;9.00;5.35;;;;;;;6.80;39.94;94902.28;5010773;28;20260;-64
2022/02/08 06:41:49;;;;;;;6.88;5.07;;;;;;;6.74;40.69;94944.84;5011500;28;20208;-65
2022/02/08 06:44:44;;;;;;;8.43;5.28;;;;;;;7.65;38.76;94943.91;5011078;28;20248;-65
2022/02/08 06:47:18;;;;;;;9.48;4.65;;;;;;;6.86;39.38;94958.63;5010722;28;20209;-63
2022/02/08 06:49:54;;;;;;;8.20;4.97;;;;;;;6.86;40.38;94968.28;5011442;28;20205;-64
2022/02/08 06:52:23;;;;;;;8.45;5.30;;;;;;;7.35;39.51;94966.88;5011663;28;20206;-63
2022/02/08 06:55:24;;;;;;;11.27;5.85;;;;;;;7.82;38.14;94973.41;5009498;28;20229;-65
2022/02/08 07:01:33;;;;;;;11.05;5.45;;;;;;;7.18;39.83;94998.09;5011636;28;20189;-65
2022/02/08 07:04:07;;;;;;;9.57;5.60;;;;;;;7.33;39.22;94997.56;5011129;28;20194;-64
2022/02/08 07:07:23;;;;;;;10.20;5.57;;;;;;;6.84;40.44;95007.56;5011594;28;20232;-64
2022/02/08 07:10:41;;;;;;;37.00;18.00;;;;;;;6.72;40.72;95019.81;5011621;28;20252;-63
2022/02/08 15:13:45;;;;;;;12.40;3.70;;;;;;;10.44;28.99;95376.31;4951580;23;20231;-64
2022/02/08 15:16:25;;;;;;;5.57;3.13;;;;;;;10.53;27.75;95377.47;4951358;28;20290;-64
2022/02/08 15:18:52;;;;;;;13.90;3.65;;;;;;;10.79;27.00;95395.09;4954874;28;20217;-63
2022/02/08 15:21:41;;;;;;;13.35;3.97;;;;;;;10.73;26.88;95390.81;4972253;28;20203;-64
2022/02/08 15:24:09;;;;;;;10.68;3.92;;;;;;;10.59;26.30;95384.38;4970624;28;20199;-63
2022/02/08 15:26:43;;;;;;;9.88;4.53;;;;;;;9.94;27.59;95401.75;4971959;28;20294;-64
2022/02/08 15:29:10;;;;;;;8.10;3.10;;;;;;;9.76;27.29;95400.16;4968691;28;20222;-64
2022/02/08 15:31:36;;;;;;;8.88;3.13;;;;;;;9.77;27.59;95417.47;4952109;28;20892;-64
2022/02/08 15:34:03;;;;;;;8.27;2.85;;;;;;;9.90;27.57;95416.34;4950970;29;20678;-63
2022/02/08 15:36:31;;;;;;;7.28;3.00;;;;;;;10.48;27.00;95424.56;4952323;29;20210;-64
2022/02/08 15:39:06;;;;;;;8.88;3.65;;;;;;;10.20;27.85;95424.69;4953310;28;20203;-64
2022/02/08 15:41:39;;;;;;;8.02;3.22;;;;;;;10.00;27.76;95411.25;4953740;29;20279;-64
2022/02/08 15:44:20;;;;;;;7.22;3.05;;;;;;;10.34;27.79;95433.81;4952776;29;20218;-62
2022/02/08 15:46:48;;;;;;;6.38;3.33;;;;;;;10.30;27.82;95452.84;4951938;29;20694;-64
2022/02/08 15:49:15;;;;;;;7.70;3.35;;;;;;;10.39;27.92;95444.34;4951244;29;20195;-63
2022/02/08 15:51:48;;;;;;;6.50;3.00;;;;;;;10.33;28.24;95447.94;4951218;29;20212;-63
2022/02/08 15:54:38;;;;;;;8.75;3.22;;;;;;;10.15;28.30;95456.03;4951599;29;20591;-64
2022/02/08 15:57:41;;;;;;;9.25;3.42;;;;;;;10.17;28.21;95451.34;4951996;28;20212;-65
2022/02/08 16:00:23;;;;;;;8.18;3.42;;;;;;;10.52;27.53;95451.88;4950972;28;20199;-63
2022/02/08 16:06:55;;;;;;;11.52;3.78;;;;;;;10.44;27.49;95475.88;4960040;28;20215;-64
2022/02/08 16:08:35;;;;;;;9.07;3.72;;;;;;;10.51;28.55;95471.25;4940340;29;20662;-63
2022/02/08 16:11:33;;;;;;;35.33;19.73;;;;;;;10.10;27.88;95474.31;4949968;28;20306;-63
2022/02/08 16:14:32;;;;;;;22.27;8.55;;;;;;;10.03;28.96;95489.34;4949307;28;20338;-63
2022/02/08 16:17:01;;;;;;;9.38;3.75;;;;;;;9.55;29.84;95500.28;4949954;28;20239;-63
2022/02/08 16:30:57;;;;;;;13.45;4.50;;;;;;;10.45;28.68;95529.88;4969112;28;20233;-63
2022/02/08 16:52:46;;;;;;;12.80;4.60;;;;;;;9.82;29.89;95551.00;4967884;28;20641;-62
2022/02/08 16:57:54;;;;;;;16.25;7.15;;;;;;;9.73;29.71;95552.41;4965243;28;20218;-66
2022/02/08 17:00:24;;;;;;;29.17;16.30;;;;;;;9.59;29.96;95571.25;4970624;28;20189;-69
2022/02/08 17:03:11;;;;;;;12.88;4.90;;;;;;;10.00;29.08;95576.19;4970314;28;20199;-63
2022/02/08 17:05:38;;;;;;;13.13;5.22;;;;;;;10.12;29.32;95584.84;4955341;28;20207;-63
2022/02/08 17:08:10;;;;;;;13.00;4.72;;;;;;;9.94;29.04;95593.66;4949362;28;20350;-62
2022/02/08 17:10:42;;;;;;;13.23;4.60;;;;;;;10.31;29.40;95588.03;4952741;28;20208;-64
2022/02/08 17:15:57;;;;;;;11.73;5.22;;;;;;;9.95;29.71;95586.59;4949949;28;20222;-63
2022/02/08 17:35:32;;;;;;;12.43;4.03;;;;;;;9.57;30.20;95625.63;4949963;28;20196;-62
2022/02/08 17:48:12;;;;;;;13.00;5.53;;;;;;;9.12;30.55;95644.53;4951635;28;20608;-65
2022/02/08 17:50:40;;;;;;;11.13;5.40;;;;;;;9.30;29.81;95650.69;4953890;28;20203;-63
2022/02/08 17:53:06;;;;;;;13.27;4.93;;;;;;;9.16;30.68;95656.13;4958838;28;20192;-66
2022/02/08 17:55:33;;;;;;;14.18;5.68;;;;;;;8.96;31.14;95650.44;4952985;28;20219;-63
2022/02/08 17:58:00;;;;;;;9.52;4.53;;;;;;;9.15;31.15;95661.59;4954814;29;20203;-63
2022/02/08 18:00:32;;;;;;;11.88;4.65;;;;;;;9.35;29.92;95658.63;4953611;29;20204;-64
2022/02/08 18:03:04;;;;;;;11.25;4.75;;;;;;;9.25;30.25;95664.47;4954198;29;20222;-65
2022/02/08 18:05:31;;;;;;;47.55;28.48;;;;;;;8.90;31.48;95664.44;4951070;28;20235;-66
2022/02/08 18:07:58;;;;;;;223.95;121.32;;;;;;;8.46;32.68;95670.16;4953844;28;20212;-67
2022/02/08 18:10:31;;;;;;;9.07;4.40;;;;;;;8.53;32.25;95673.47;4953197;29;20682;-66
2022/02/08 18:12:59;;;;;;;8.05;3.53;;;;;;;8.49;31.51;95674.09;4953595;29;20435;-64
2022/02/08 18:15:27;;;;;;;6.90;3.63;;;;;;;8.99;31.45;95675.34;4952897;29;20236;-63
2022/02/08 18:17:59;;;;;;;8.68;3.78;;;;;;;8.74;30.73;95667.69;4953631;29;20255;-63
2022/02/08 18:20:39;;;;;;;6.45;3.10;;;;;;;8.66;31.39;95656.78;4953424;29;20227;-65
2022/02/08 18:23:21;;;;;;;5.80;3.67;;;;;;;9.05;30.72;95677.84;4953557;29;20195;-65
2022/02/08 18:28:34;;;;;;;10.43;3.78;;;;;;;9.51;30.44;95678.84;4952889;29;20270;-64
2022/02/08 18:56:24;;;;;;;90.25;53.17;;;;;;;8.78;35.49;95697.59;4952408;29;20709;-68
2022/02/08 19:10:08;;;;;;;12.15;5.45;;;;;;;8.60;32.58;95717.75;4972777;28;20587;-66
2022/02/08 19:13:10;;;;;;;11.32;4.63;;;;;;;8.46;33.07;95716.34;4962205;28;20200;-65
2022/02/08 19:20:55;;;;;;;10.93;4.68;;;;;;;8.11;33.36;95735.25;4951271;28;20204;-66
2022/02/08 19:23:22;;;;;;;7.68;3.50;;;;;;;7.70;33.79;95737.72;4954747;29;20208;-65
2022/02/08 19:25:49;;;;;;;7.13;3.83;;;;;;;8.35;32.15;95730.97;4952890;28;20255;-65
2022/02/08 19:28:16;;;;;;;11.95;4.65;;;;;;;7.77;33.74;95740.25;4941851;29;20212;-64
2022/02/08 19:30:43;;;;;;;9.95;4.72;;;;;;;7.66;34.32;95751.41;4949965;28;20196;-70
2022/02/08 19:33:10;;;;;;;7.07;4.32;;;;;;;7.85;33.43;95755.63;4949411;28;20222;-66
2022/02/08 19:35:37;;;;;;;9.43;5.20;;;;;;;9.07;33.25;95740.34;4949755;28;20301;-68
2022/02/08 19:38:05;;;;;;;10.45;5.00;;;;;;;9.22;32.16;95761.66;4964630;28;20633;-64
2022/02/08 19:40:32;;;;;;;14.43;5.30;;;;;;;8.79;31.94;95759.31;4947291;28;20207;-66
2022/02/08 19:42:59;;;;;;;26.25;12.45;;;;;;;8.61;32.89;95756.72;4978925;28;20268;-70
2022/02/08 19:45:27;;;;;;;12.50;5.32;;;;;;;8.57;33.39;95750.38;4970420;28;20203;-66
2022/02/08 19:47:54;;;;;;;8.43;4.63;;;;;;;8.49;32.68;95766.31;4949950;28;20211;-68
2022/02/08 19:50:21;;;;;;;14.95;5.40;;;;;;;8.51;32.73;95771.31;4957449;28;20210;-66
2022/02/08 19:52:50;;;;;;;10.18;4.20;;;;;;;8.22;33.39;95762.44;4956181;28;20280;-68
2022/02/08 19:57:57;;;;;;;11.48;4.90;;;;;;;7.58;34.37;95757.72;4957163;28;20199;-64
2022/02/08 20:00:29;;;;;;;11.45;4.97;;;;;;;8.10;33.78;95766.81;4970220;28;20211;-66
2022/02/08 20:03:00;;;;;;;9.75;4.72;;;;;;;7.87;33.50;95764.03;4968314;28;20274;-64
2022/02/08 20:05:30;;;;;;;13.13;5.28;;;;;;;8.23;34.46;95778.91;4964770;28;20216;-64
2022/02/08 20:07:58;;;;;;;13.25;5.72;;;;;;;9.12;32.18;95780.50;4957156;28;20210;-64
2022/02/08 20:10:29;;;;;;;13.20;5.95;;;;;;;8.49;33.24;95779.38;4959526;28;20207;-67
2022/02/08 20:12:56;;;;;;;12.02;5.72;;;;;;;7.82;33.93;95779.53;4951154;28;20240;-64
2022/02/08 20:15:24;;;;;;;10.57;5.32;;;;;;;7.12;35.25;95781.56;4950662;29;20227;-64
2022/02/08 20:17:52;;;;;;;13.10;5.93;;;;;;;7.36;35.25;95802.63;4952140;29;20253;-65
2022/02/08 20:20:23;;;;;;;12.23;5.93;;;;;;;8.47;33.86;95783.22;4964093;28;20689;-63
2022/02/08 20:22:59;;;;;;;11.82;6.03;;;;;;;7.81;34.62;95791.00;4970783;28;20230;-66
2022/02/08 20:25:27;;;;;;;8.95;5.55;;;;;;;8.04;34.47;95788.53;4970380;28;20318;-63
2022/02/08 20:28:11;;;;;;;13.45;5.30;;;;;;;8.09;34.29;95783.47;4954128;28;20200;-64
2022/02/08 20:30:39;;;;;;;11.48;5.60;;;;;;;8.10;34.91;95795.50;4949110;28;20211;-66
2022/02/08 20:33:06;;;;;;;17.20;5.60;;;;;;;8.35;33.89;95785.00;4949436;28;20200;-66
2022/02/08 20:35:33;;;;;;;11.65;5.28;;;;;;;8.03;34.39;95785.13;4948784;28;20282;-64
2022/02/08 20:38:03;;;;;;;10.15;5.20;;;;;;;7.43;35.74;95798.16;4948703;28;20223;-64
2022/02/08 20:40:30;;;;;;;15.65;5.57;;;;;;;7.77;35.57;95805.50;4949220;28;20220;-65
2022/02/08 20:43:00;;;;;;;9.25;5.20;;;;;;;7.98;35.54;95808.47;4949393;28;20287;-65
2022/02/08 20:45:27;;;;;;;12.32;5.35;;;;;;;7.49;35.40;95805.94;4951045;28;20196;-63
2022/02/08 20:47:55;;;;;;;9.10;4.72;;;;;;;8.13;35.41;95795.06;4949574;28;20639;-64
2022/02/08 20:50:25;;;;;;;9.45;4.30;;;;;;;8.01;35.06;95794.22;4948759;28;20207;-64
2022/02/08 20:53:08;;;;;;;8.85;3.85;;;;;;;7.55;35.96;95789.44;4949678;28;20207;-65
2022/02/08 20:55:48;;;;;;;8.45;4.03;;;;;;;7.65;36.00;95796.75;4948951;28;20215;-65
2022/02/08 20:58:26;;;;;;;9.90;4.32;;;;;;;7.84;35.79;95785.34;4949998;29;20235;-65
2022/02/08 21:00:53;;;;;;;7.10;4.38;;;;;;;7.36;35.81;95792.19;4951252;29;20602;-62
2022/02/08 21:06:13;;;;;;;7.75;3.58;;;;;;;7.38;35.97;95779.75;4950581;29;20594;-63
2022/02/08 21:08:36;;;;;;;7.13;3.35;;;;;;;6.40;37.20;95781.22;4950401;29;20214;-66
2022/02/08 21:11:04;;;;;;;6.78;3.65;;;;;;;6.68;37.12;95788.69;4950683;29;20208;-65
2022/02/08 21:16:11;;;;;;;9.23;3.40;;;;;;;7.11;36.37;95794.81;4953945;28;20206;-64
2022/02/08 21:18:38;;;;;;;6.25;3.17;;;;;;;7.37;36.60;95792.00;4953703;28;20254;-63
2022/02/08 21:21:07;;;;;;;4.63;2.50;;;;;;;6.78;37.30;95797.63;4953874;28;20286;-63
2022/02/08 21:23:38;;;;;;;5.40;2.85;;;;;;;6.97;36.26;95794.09;4953180;28;20282;-66
2022/02/08 21:26:07;;;;;;;8.40;3.60;;;;;;;7.48;36.46;95790.50;4954272;28;20223;-64
2022/02/08 21:29:06;;;;;;;7.38;3.30;;;;;;;7.34;35.99;95791.63;4952431;28;20206;-64
2022/02/08 21:31:58;;;;;;;7.90;3.13;;;;;;;6.81;36.80;95794.59;4957076;28;20203;-64
2022/02/08 21:53:30;;;;;;;4.82;2.72;;;;;;;7.38;36.94;95798.00;4936158;29;20221;-64
2022/02/08 21:56:01;;;;;;;7.75;3.03;;;;;;;7.53;36.27;95798.47;4951507;29;20245;-62
2022/02/08 21:58:31;;;;;;;5.68;2.80;;;;;;;6.45;37.83;95801.41;4953609;29;20235;-63
2022/02/08 22:01:00;;;;;;;9.02;2.85;;;;;;;6.70;37.45;95782.25;4953141;29;20210;-64
2022/02/08 22:03:27;;;;;;;7.18;3.10;;;;;;;7.08;36.96;95814.25;4952569;29;20184;-63
2022/02/08 22:05:54;;;;;;;6.97;2.85;;;;;;;6.91;37.48;95813.19;4953204;29;20300;-64
2022/02/08 22:08:33;;;;;;;8.50;3.03;;;;;;;7.08;37.12;95809.06;4952648;29;20312;-63
2022/02/08 22:19:25;;;;;;;7.00;2.67;;;;;;;6.79;37.55;95809.66;4952407;29;20232;-63
2022/02/08 22:22:02;;;;;;;5.03;2.72;;;;;;;7.10;37.13;95819.25;4935518;29;20234;-63
2022/02/08 22:24:39;;;;;;;6.28;3.17;;;;;;;6.96;37.74;95817.75;4952161;29;20192;-61
2022/02/08 22:30:03;;;;;;;7.10;3.03;;;;;;;7.32;36.86;95814.53;4952982;29;20271;-63
2022/02/08 22:32:33;;;;;;;6.65;2.88;;;;;;;6.58;38.16;95820.38;4952717;29;20733;-62
2022/02/08 22:35:47;;;;;;;4.70;2.50;;;;;;;6.32;38.28;95810.09;4952497;29;20216;-63
2022/02/08 22:38:02;;;;;;;5.78;2.80;;;;;;;6.22;38.50;95807.13;4942435;29;20219;-64
2022/02/08 22:40:32;;;;;;;7.55;2.78;;;;;;;6.73;38.38;95802.66;4951732;29;20263;-62
2022/02/08 22:43:07;;;;;;;11.82;3.15;;;;;;;6.37;38.77;95805.03;4951245;29;20203;-62
2022/02/08 22:45:35;;;;;;;6.47;2.78;;;;;;;6.76;37.81;95807.47;4949977;29;20234;-62
2022/02/08 22:48:06;;;;;;;7.53;2.40;;;;;;;6.91;37.43;95802.78;4948600;29;20873;-62
2022/02/08 22:50:34;;;;;;;6.60;2.78;;;;;;;6.51;38.71;95819.63;4949533;29;20204;-63
2022/02/08 22:53:01;;;;;;;6.65;2.53;;;;;;;5.93;39.42;95811.00;4942477;29;20196;-65
2022/02/08 22:55:30;;;;;;;7.43;3.08;;;;;;;6.98;37.66;95821.75;4888638;29;20266;-63
2022/02/08 22:58:06;;;;;;;7.40;3.08;;;;;;;7.22;37.78;95823.56;4951614;29;20262;-63
2022/02/08 23:00:36;;;;;;;6.68;3.00;;;;;;;7.02;37.83;95827.34;4886286;29;20196;-65
2022/02/08 23:03:04;;;;;;;7.22;2.97;;;;;;;7.46;37.81;95816.81;4943807;29;20208;-65
2022/02/08 23:05:32;;;;;;;9.77;3.30;;;;;;;6.74;38.54;95825.09;4951545;29;20254;-62
2022/02/08 23:08:00;;;;;;;6.97;3.28;;;;;;;6.83;38.53;95826.47;4952028;29;20235;-64
2022/02/08 23:10:49;;;;;;;7.80;3.45;;;;;;;7.53;37.46;95829.78;4951754;29;20199;-63
2022/02/08 23:13:18;;;;;;;8.88;3.80;;;;;;;7.54;37.40;95836.56;4951414;29;20240;-63
2022/02/08 23:16:32;;;;;;;6.97;3.80;;;;;;;8.23;36.63;95809.19;4951698;29;20207;-63
2022/02/08 23:37:52;;;;;;;11.25;4.68;;;;;;;6.71;40.22;95841.16;4910612;28;20200;-63
2022/02/08 23:40:19;;;;;;;11.88;4.55;;;;;;;7.00;39.72;95831.97;4884298;29;20192;-62
2022/02/08 23:42:50;;;;;;;9.65;4.03;;;;;;;6.68;40.20;95840.78;4910353;29;20222;-62
2022/02/08 23:45:17;;;;;;;9.75;4.35;;;;;;;7.16;39.38;95840.09;4950888;29;20200;-63
2022/02/08 23:47:49;;;;;;;7.75;4.35;;;;;;;6.93;39.56;95834.59;4951442;29;20232;-64
2022/02/08 23:50:26;;;;;;;8.63;3.83;;;;;;;6.98;39.95;95837.41;4951108;29;20259;-63
2022/02/08 23:53:01;;;;;;;9.80;4.40;;;;;;;7.34;39.99;95841.16;4951234;29;20220;-62
2022/02/08 23:55:37;;;;;;;10.93;5.10;;;;;;;7.39;39.04;95833.50;4950592;29;20697;-63
2022/02/08 23:58:11;;;;;;;9.10;4.47;;;;;;;7.74;38.96;95827.56;4951666;29;20206;-62
